sensor_id;sensor_type;location;lat;lon;timestamp;pressure;altitude;pressure_sealevel;temperature;humidity
58473;BME280;44775;51.564;5.460;2023-07-02T00:02:13;100456.09;;;16.23;100.00
58473;BME280;44775;51.564;5.460;2023-07-02T00:04:38;100453.19;;;16.24;100.00
58473;BME280;44775;51.564;5.460;2023-07-02T00:07:03;100455.25;;;16.22;100.00
58473;BME280;44775;51.564;5.460;2023-07-02T00:09:29;100445.03;;;16.38;100.00
58473;BME280;44775;51.564;5.460;2023-07-02T00:11:54;100452.97;;;16.26;100.00
58473;BME280;44775;51.564;5.460;2023-07-02T00:14:20;100456.09;;;16.23;100.00
58473;BME280;44775;51.564;5.460;2023-07-02T00:16:46;100445.34;;;16.16;100.00
58473;BME280;44775;51.564;5.460;2023-07-02T00:19:13;100450.13;;;16.14;100.00
58473;BME280;44775;51.564;5.460;2023-07-02T00:21:38;100453.00;;;16.19;100.00
58473;BME280;44775;51.564;5.460;2023-07-02T00:24:05;100453.22;;;16.18;100.00
58473;BME280;44775;51.564;5.460;2023-07-02T00:26:30;100450.94;;;16.15;100.00
58473;BME280;44775;51.564;5.460;2023-07-02T00:28:56;100416.72;;;16.15;100.00
58473;BME280;44775;51.564;5.460;2023-07-02T00:31:21;100418.56;;;16.21;100.00
58473;BME280;44775;51.564;5.460;2023-07-02T00:33:47;100415.94;;;16.08;100.00
58473;BME280;44775;51.564;5.460;2023-07-02T00:36:12;100422.56;;;16.12;100.00
58473;BME280;44775;51.564;5.460;2023-07-02T00:38:39;100437.31;;;16.03;100.00
58473;BME280;44775;51.564;5.460;2023-07-02T00:41:04;100445.59;;;16.08;100.00
58473;BME280;44775;51.564;5.460;2023-07-02T00:43:29;100442.06;;;16.08;100.00
58473;BME280;44775;51.564;5.460;2023-07-02T00:45:55;100444.19;;;15.99;100.00
58473;BME280;44775;51.564;5.460;2023-07-02T00:48:20;100449.84;;;15.84;100.00
58473;BME280;44775;51.564;5.460;2023-07-02T00:50:46;100460.41;;;15.79;100.00
58473;BME280;44775;51.564;5.460;2023-07-02T00:53:11;100457.66;;;15.92;100.00
58473;BME280;44775;51.564;5.460;2023-07-02T00:55:36;100465.38;;;15.82;100.00
58473;BME280;44775;51.564;5.460;2023-07-02T00:58:01;100467.06;;;15.83;100.00
58473;BME280;44775;51.564;5.460;2023-07-02T01:00:26;100460.81;;;15.82;100.00
58473;BME280;44775;51.564;5.460;2023-07-02T01:02:54;100459.94;;;15.95;100.00
58473;BME280;44775;51.564;5.460;2023-07-02T01:05:23;100468.06;;;15.82;100.00
58473;BME280;44775;51.564;5.460;2023-07-02T01:07:49;100466.44;;;15.81;100.00
58473;BME280;44775;51.564;5.460;2023-07-02T01:10:14;100462.88;;;15.87;100.00
58473;BME280;44775;51.564;5.460;2023-07-02T01:12:39;100468.50;;;15.79;100.00
58473;BME280;44775;51.564;5.460;2023-07-02T01:15:05;100469.09;;;15.94;100.00
58473;BME280;44775;51.564;5.460;2023-07-02T01:17:31;100462.44;;;15.97;100.00
58473;BME280;44775;51.564;5.460;2023-07-02T01:20:05;100473.66;;;15.94;100.00
58473;BME280;44775;51.564;5.460;2023-07-02T01:22:34;100471.31;;;16.11;100.00
58473;BME280;44775;51.564;5.460;2023-07-02T01:24:59;100472.03;;;15.79;100.00
58473;BME280;44775;51.564;5.460;2023-07-02T01:27:27;100467.69;;;15.78;100.00
58473;BME280;44775;51.564;5.460;2023-07-02T01:29:52;100474.75;;;15.79;100.00
58473;BME280;44775;51.564;5.460;2023-07-02T01:32:18;100470.19;;;15.60;100.00
58473;BME280;44775;51.564;5.460;2023-07-02T01:34:43;100485.94;;;15.56;100.00
58473;BME280;44775;51.564;5.460;2023-07-02T01:37:14;100480.53;;;15.63;100.00
58473;BME280;44775;51.564;5.460;2023-07-02T01:39:41;100485.13;;;15.56;100.00
58473;BME280;44775;51.564;5.460;2023-07-02T01:42:08;100486.38;;;15.53;100.00
58473;BME280;44775;51.564;5.460;2023-07-02T01:44:33;100483.25;;;15.50;100.00
58473;BME280;44775;51.564;5.460;2023-07-02T01:46:59;100488.00;;;15.54;100.00
58473;BME280;44775;51.564;5.460;2023-07-02T01:49:24;100481.19;;;15.39;100.00
58473;BME280;44775;51.564;5.460;2023-07-02T01:51:50;100485.31;;;15.54;100.00
58473;BME280;44775;51.564;5.460;2023-07-02T01:54:15;100489.91;;;15.34;100.00
58473;BME280;44775;51.564;5.460;2023-07-02T01:56:41;100489.72;;;15.29;100.00
58473;BME280;44775;51.564;5.460;2023-07-02T01:59:06;100488.25;;;15.26;100.00
58473;BME280;44775;51.564;5.460;2023-07-02T02:01:31;100484.94;;;15.24;100.00
58473;BME280;44775;51.564;5.460;2023-07-02T02:03:57;100485.56;;;15.40;100.00
58473;BME280;44775;51.564;5.460;2023-07-02T02:06:23;100479.56;;;15.24;100.00
58473;BME280;44775;51.564;5.460;2023-07-02T02:08:48;100489.50;;;15.17;100.00
58473;BME280;44775;51.564;5.460;2023-07-02T02:11:13;100493.41;;;15.28;100.00
58473;BME280;44775;51.564;5.460;2023-07-02T02:13:38;100489.09;;;15.27;100.00
58473;BME280;44775;51.564;5.460;2023-07-02T02:16:04;100485.16;;;15.29;100.00
58473;BME280;44775;51.564;5.460;2023-07-02T02:18:29;100488.25;;;15.33;100.00
58473;BME280;44775;51.564;5.460;2023-07-02T02:20:54;100487.22;;;15.21;100.00
58473;BME280;44775;51.564;5.460;2023-07-02T02:23:19;100490.13;;;15.19;100.00
58473;BME280;44775;51.564;5.460;2023-07-02T02:25:44;100489.09;;;15.07;100.00
58473;BME280;44775;51.564;5.460;2023-07-02T02:28:10;100492.81;;;14.99;100.00
58473;BME280;44775;51.564;5.460;2023-07-02T02:30:35;100497.38;;;14.92;100.00
58473;BME280;44775;51.564;5.460;2023-07-02T02:33:00;100490.53;;;14.96;100.00
58473;BME280;44775;51.564;5.460;2023-07-02T02:35:25;100495.25;;;14.81;100.00
58473;BME280;44775;51.564;5.460;2023-07-02T02:37:50;100497.97;;;14.87;100.00
58473;BME280;44775;51.564;5.460;2023-07-02T02:40:16;100504.78;;;14.83;100.00
58473;BME280;44775;51.564;5.460;2023-07-02T02:42:41;100496.91;;;14.69;100.00
58473;BME280;44775;51.564;5.460;2023-07-02T02:45:06;100507.25;;;14.65;100.00
58473;BME280;44775;51.564;5.460;2023-07-02T02:47:32;100505.97;;;14.61;100.00
58473;BME280;44775;51.564;5.460;2023-07-02T02:49:57;100507.81;;;14.54;100.00
58473;BME280;44775;51.564;5.460;2023-07-02T02:52:22;100508.88;;;14.53;100.00
58473;BME280;44775;51.564;5.460;2023-07-02T02:54:47;100507.59;;;14.49;100.00
58473;BME280;44775;51.564;5.460;2023-07-02T02:57:12;100510.44;;;14.40;100.00
58473;BME280;44775;51.564;5.460;2023-07-02T02:59:38;100514.38;;;14.38;100.00
58473;BME280;44775;51.564;5.460;2023-07-02T03:02:04;100519.56;;;14.46;100.00
58473;BME280;44775;51.564;5.460;2023-07-02T03:04:29;100523.88;;;14.40;100.00
58473;BME280;44775;51.564;5.460;2023-07-02T03:06:54;100528.63;;;14.32;100.00
58473;BME280;44775;51.564;5.460;2023-07-02T03:09:20;100528.88;;;14.44;100.00
58473;BME280;44775;51.564;5.460;2023-07-02T03:11:46;100526.78;;;14.39;100.00
58473;BME280;44775;51.564;5.460;2023-07-02T03:14:12;100529.44;;;14.32;100.00
58473;BME280;44775;51.564;5.460;2023-07-02T03:16:37;100534.16;;;14.24;100.00
58473;BME280;44775;51.564;5.460;2023-07-02T03:19:02;100536.84;;;14.24;100.00
58473;BME280;44775;51.564;5.460;2023-07-02T03:21:28;100536.84;;;14.24;100.00
58473;BME280;44775;51.564;5.460;2023-07-02T03:23:54;100542.19;;;14.17;100.00
58473;BME280;44775;51.564;5.460;2023-07-02T03:26:20;100542.19;;;14.17;100.00
58473;BME280;44775;51.564;5.460;2023-07-02T03:28:46;100543.84;;;14.11;100.00
58473;BME280;44775;51.564;5.460;2023-07-02T03:31:11;100540.72;;;14.08;100.00
58473;BME280;44775;51.564;5.460;2023-07-02T03:33:36;100551.47;;;14.08;100.00
58473;BME280;44775;51.564;5.460;2023-07-02T03:36:02;100548.53;;;14.03;100.00
58473;BME280;44775;51.564;5.460;2023-07-02T03:38:27;100550.66;;;14.07;100.00
58473;BME280;44775;51.564;5.460;2023-07-02T03:40:52;100554.31;;;14.00;100.00
58473;BME280;44775;51.564;5.460;2023-07-02T03:43:17;100549.56;;;14.02;100.00
58473;BME280;44775;51.564;5.460;2023-07-02T03:45:43;100559.25;;;13.96;100.00
58473;BME280;44775;51.564;5.460;2023-07-02T03:48:08;100563.16;;;13.93;100.00
58473;BME280;44775;51.564;5.460;2023-07-02T03:50:33;100562.97;;;13.95;100.00
58473;BME280;44775;51.564;5.460;2023-07-02T03:52:58;100565.66;;;13.95;100.00
58473;BME280;44775;51.564;5.460;2023-07-02T03:55:24;100566.03;;;13.92;100.00
58473;BME280;44775;51.564;5.460;2023-07-02T03:57:49;100572.06;;;13.94;100.00
58473;BME280;44775;51.564;5.460;2023-07-02T04:00:15;100564.81;;;13.94;100.00
58473;BME280;44775;51.564;5.460;2023-07-02T04:02:40;100570.19;;;13.94;100.00
58473;BME280;44775;51.564;5.460;2023-07-02T04:05:05;100560.28;;;13.95;100.00
58473;BME280;44775;51.564;5.460;2023-07-02T04:07:31;100562.41;;;14.06;100.00
58473;BME280;44775;51.564;5.460;2023-07-02T04:09:56;100574.31;;;13.97;100.00
58473;BME280;44775;51.564;5.460;2023-07-02T04:12:21;100572.72;;;14.03;100.00
58473;BME280;44775;51.564;5.460;2023-07-02T04:14:46;100570.47;;;14.06;100.00
58473;BME280;44775;51.564;5.460;2023-07-02T04:17:11;100575.59;;;14.01;100.00
58473;BME280;44775;51.564;5.460;2023-07-02T04:19:37;100581.41;;;14.05;100.00
58473;BME280;44775;51.564;5.460;2023-07-02T04:22:02;100578.31;;;14.01;100.00
58473;BME280;44775;51.564;5.460;2023-07-02T04:24:27;100580.63;;;14.11;100.00
58473;BME280;44775;51.564;5.460;2023-07-02T04:26:53;100579.56;;;14.05;100.00
58473;BME280;44775;51.564;5.460;2023-07-02T04:29:18;100575.84;;;14.06;100.00
58473;BME280;44775;51.564;5.460;2023-07-02T04:31:43;100580.16;;;14.01;100.00
58473;BME280;44775;51.564;5.460;2023-07-02T04:34:09;100586.41;;;14.08;100.00
58473;BME280;44775;51.564;5.460;2023-07-02T04:36:34;100588.69;;;14.11;100.00
58473;BME280;44775;51.564;5.460;2023-07-02T04:38:59;100599.66;;;14.16;100.00
58473;BME280;44775;51.564;5.460;2023-07-02T04:41:24;100597.38;;;14.13;100.00
58473;BME280;44775;51.564;5.460;2023-07-02T04:43:49;100598.88;;;14.22;100.00
58473;BME280;44775;51.564;5.460;2023-07-02T04:46:15;100597.44;;;14.26;100.00
58473;BME280;44775;51.564;5.460;2023-07-02T04:48:40;100603.88;;;14.32;100.00
58473;BME280;44775;51.564;5.460;2023-07-02T04:51:05;100612.59;;;14.40;100.00
58473;BME280;44775;51.564;5.460;2023-07-02T04:53:30;100605.19;;;14.43;100.00
58473;BME280;44775;51.564;5.460;2023-07-02T04:55:55;100613.47;;;14.48;100.00
58473;BME280;44775;51.564;5.460;2023-07-02T04:58:22;100614.84;;;14.65;100.00
58473;BME280;44775;51.564;5.460;2023-07-02T05:00:47;100610.28;;;14.66;100.00
58473;BME280;44775;51.564;5.460;2023-07-02T05:03:13;100612.16;;;14.65;100.00
58473;BME280;44775;51.564;5.460;2023-07-02T05:05:38;100613.00;;;14.79;100.00
58473;BME280;44775;51.564;5.460;2023-07-02T05:08:03;100617.34;;;14.73;99.93
58473;BME280;44775;51.564;5.460;2023-07-02T05:10:29;100626.69;;;14.91;100.00
58473;BME280;44775;51.564;5.460;2023-07-02T05:12:54;100621.16;;;14.99;100.00
58473;BME280;44775;51.564;5.460;2023-07-02T05:15:20;100626.94;;;14.96;98.40
58473;BME280;44775;51.564;5.460;2023-07-02T05:17:45;100636.03;;;15.01;99.20
58473;BME280;44775;51.564;5.460;2023-07-02T05:20:10;100638.53;;;15.03;99.71
58473;BME280;44775;51.564;5.460;2023-07-02T05:22:35;100641.69;;;15.20;99.10
58473;BME280;44775;51.564;5.460;2023-07-02T05:25:01;100639.19;;;15.25;98.50
58473;BME280;44775;51.564;5.460;2023-07-02T05:27:26;100643.16;;;15.22;98.28
58473;BME280;44775;51.564;5.460;2023-07-02T05:29:51;100640.91;;;15.39;96.33
58473;BME280;44775;51.564;5.460;2023-07-02T05:32:16;100652.28;;;15.41;96.87
58473;BME280;44775;51.564;5.460;2023-07-02T05:34:41;100656.22;;;15.52;95.32
58473;BME280;44775;51.564;5.460;2023-07-02T05:37:07;100655.41;;;15.58;95.03
58473;BME280;44775;51.564;5.460;2023-07-02T05:39:33;100662.69;;;15.77;94.45
58473;BME280;44775;51.564;5.460;2023-07-02T05:41:58;100664.97;;;16.00;93.29
58473;BME280;44775;51.564;5.460;2023-07-02T05:44:23;100673.47;;;16.04;90.32
58473;BME280;44775;51.564;5.460;2023-07-02T05:46:49;100672.81;;;16.28;91.17
58473;BME280;44775;51.564;5.460;2023-07-02T05:49:14;100676.69;;;16.52;89.20
58473;BME280;44775;51.564;5.460;2023-07-02T05:51:39;100673.72;;;16.81;89.54
58473;BME280;44775;51.564;5.460;2023-07-02T05:54:04;100674.69;;;16.99;89.06
58473;BME280;44775;51.564;5.460;2023-07-02T05:56:29;100679.25;;;16.99;81.27
58473;BME280;44775;51.564;5.460;2023-07-02T05:58:55;100676.66;;;17.17;82.60
58473;BME280;44775;51.564;5.460;2023-07-02T06:01:20;100672.84;;;17.32;82.97
58473;BME280;44775;51.564;5.460;2023-07-02T06:03:45;100678.06;;;17.27;80.12
58473;BME280;44775;51.564;5.460;2023-07-02T06:06:11;100671.19;;;17.31;83.18
58473;BME280;44775;51.564;5.460;2023-07-02T06:08:36;100679.72;;;17.28;83.10
58473;BME280;44775;51.564;5.460;2023-07-02T06:11:02;100688.50;;;17.16;84.24
58473;BME280;44775;51.564;5.460;2023-07-02T06:13:27;100690.97;;;17.25;85.00
58473;BME280;44775;51.564;5.460;2023-07-02T06:15:52;100700.84;;;17.37;82.66
58473;BME280;44775;51.564;5.460;2023-07-02T06:18:17;100699.78;;;17.45;82.74
58473;BME280;44775;51.564;5.460;2023-07-02T06:20:43;100696.38;;;17.56;80.09
58473;BME280;44775;51.564;5.460;2023-07-02T06:23:08;100702.66;;;17.82;80.38
58473;BME280;44775;51.564;5.460;2023-07-02T06:25:34;100700.28;;;17.92;78.61
58473;BME280;44775;51.564;5.460;2023-07-02T06:27:59;100707.03;;;18.08;79.74
58473;BME280;44775;51.564;5.460;2023-07-02T06:30:24;100704.03;;;17.91;76.09
58473;BME280;44775;51.564;5.460;2023-07-02T06:32:50;100712.53;;;17.94;78.43
58473;BME280;44775;51.564;5.460;2023-07-02T06:35:15;100714.75;;;18.04;73.15
58473;BME280;44775;51.564;5.460;2023-07-02T06:37:40;100714.69;;;18.11;77.19
58473;BME280;44775;51.564;5.460;2023-07-02T06:40:06;100719.38;;;18.22;74.88
58473;BME280;44775;51.564;5.460;2023-07-02T06:42:31;100709.34;;;18.29;72.15
58473;BME280;44775;51.564;5.460;2023-07-02T06:44:58;100720.53;;;18.33;69.40
58473;BME280;44775;51.564;5.460;2023-07-02T06:47:23;100721.13;;;18.35;71.39
58473;BME280;44775;51.564;5.460;2023-07-02T06:49:48;100714.75;;;18.04;71.01
58473;BME280;44775;51.564;5.460;2023-07-02T06:52:13;100727.88;;;18.26;73.15
58473;BME280;44775;51.564;5.460;2023-07-02T06:54:38;100727.28;;;18.24;72.09
58473;BME280;44775;51.564;5.460;2023-07-02T06:57:04;100729.88;;;18.12;75.28
58473;BME280;44775;51.564;5.460;2023-07-02T06:59:29;100735.41;;;18.42;72.15
58473;BME280;44775;51.564;5.460;2023-07-02T07:01:54;100741.56;;;18.31;72.58
58473;BME280;44775;51.564;5.460;2023-07-02T07:04:19;100736.97;;;18.56;71.09
58473;BME280;44775;51.564;5.460;2023-07-02T07:06:44;100748.69;;;18.69;65.90
58473;BME280;44775;51.564;5.460;2023-07-02T07:09:10;100743.34;;;18.62;69.92
58473;BME280;44775;51.564;5.460;2023-07-02T07:11:35;100746.47;;;18.84;69.80
58473;BME280;44775;51.564;5.460;2023-07-02T07:14:00;100753.84;;;19.14;68.04
58473;BME280;44775;51.564;5.460;2023-07-02T07:16:26;100754.59;;;19.21;66.26
58473;BME280;44775;51.564;5.460;2023-07-02T07:18:51;100756.69;;;19.19;67.82
58473;BME280;44775;51.564;5.460;2023-07-02T07:21:16;100753.88;;;19.25;64.48
58473;BME280;44775;51.564;5.460;2023-07-02T07:23:41;100761.75;;;19.45;65.98
58473;BME280;44775;51.564;5.460;2023-07-02T07:26:06;100755.16;;;19.41;63.28
58473;BME280;44775;51.564;5.460;2023-07-02T07:28:32;100756.34;;;19.45;63.20
58473;BME280;44775;51.564;5.460;2023-07-02T07:30:57;100764.31;;;19.40;63.83
58473;BME280;44775;51.564;5.460;2023-07-02T07:33:22;100772.59;;;19.27;66.91
58473;BME280;44775;51.564;5.460;2023-07-02T07:35:47;100781.34;;;19.47;63.92
58473;BME280;44775;51.564;5.460;2023-07-02T07:38:13;100783.63;;;19.62;62.13
58473;BME280;44775;51.564;5.460;2023-07-02T07:40:39;100787.72;;;19.71;62.67
58473;BME280;44775;51.564;5.460;2023-07-02T07:43:04;100789.97;;;19.74;61.12
58473;BME280;44775;51.564;5.460;2023-07-02T07:45:29;100788.06;;;19.75;63.29
58473;BME280;44775;51.564;5.460;2023-07-02T07:47:54;100786.72;;;19.96;57.94
58473;BME280;44775;51.564;5.460;2023-07-02T07:50:20;100785.91;;;20.07;56.88
58473;BME280;44775;51.564;5.460;2023-07-02T07:52:45;100788.25;;;19.92;59.59
58473;BME280;44775;51.564;5.460;2023-07-02T07:55:10;100793.41;;;19.93;59.37
58473;BME280;44775;51.564;5.460;2023-07-02T07:57:36;100798.88;;;20.05;59.22
58473;BME280;44775;51.564;5.460;2023-07-02T08:00:02;100805.91;;;19.94;57.46
58473;BME280;44775;51.564;5.460;2023-07-02T08:02:29;100797.56;;;19.96;58.97
58473;BME280;44775;51.564;5.460;2023-07-02T08:04:55;100799.94;;;20.04;58.25
58473;BME280;44775;51.564;5.460;2023-07-02T08:07:20;100803.88;;;19.78;58.97
58473;BME280;44775;51.564;5.460;2023-07-02T08:09:45;100805.88;;;19.83;58.96
58473;BME280;44775;51.564;5.460;2023-07-02T08:12:10;100803.44;;;19.93;59.31
58473;BME280;44775;51.564;5.460;2023-07-02T08:14:35;100806.41;;;19.91;58.09
58473;BME280;44775;51.564;5.460;2023-07-02T08:17:01;100805.63;;;19.72;59.88
58473;BME280;44775;51.564;5.460;2023-07-02T08:19:26;100807.44;;;19.90;57.94
58473;BME280;44775;51.564;5.460;2023-07-02T08:21:51;100811.31;;;19.83;59.07
58473;BME280;44775;51.564;5.460;2023-07-02T08:24:16;100818.75;;;19.87;58.84
58473;BME280;44775;51.564;5.460;2023-07-02T08:26:42;100816.63;;;19.89;58.84
58473;BME280;44775;51.564;5.460;2023-07-02T08:29:07;100819.28;;;20.08;60.19
58473;BME280;44775;51.564;5.460;2023-07-02T08:31:32;100821.56;;;20.22;60.00
58473;BME280;44775;51.564;5.460;2023-07-02T08:33:57;100821.78;;;20.21;60.73
58473;BME280;44775;51.564;5.460;2023-07-02T08:36:23;100829.13;;;20.32;58.71
58473;BME280;44775;51.564;5.460;2023-07-02T08:38:48;100824.66;;;20.38;57.80
58473;BME280;44775;51.564;5.460;2023-07-02T08:41:13;100828.59;;;20.54;54.28
58473;BME280;44775;51.564;5.460;2023-07-02T08:43:38;100836.31;;;20.26;56.22
58473;BME280;44775;51.564;5.460;2023-07-02T08:46:04;100832.78;;;20.26;56.96
58473;BME280;44775;51.564;5.460;2023-07-02T08:48:29;100836.72;;;20.42;56.46
58473;BME280;44775;51.564;5.460;2023-07-02T08:50:55;100837.09;;;20.57;56.50
58473;BME280;44775;51.564;5.460;2023-07-02T08:53:20;100825.75;;;20.72;57.05
58473;BME280;44775;51.564;5.460;2023-07-02T08:55:50;100834.75;;;20.84;55.20
58473;BME280;44775;51.564;5.460;2023-07-02T08:58:15;100838.75;;;20.82;54.99
58473;BME280;44775;51.564;5.460;2023-07-02T09:01:03;100839.34;;;20.60;56.74
58473;BME280;44775;51.564;5.460;2023-07-02T09:03:26;100836.56;;;20.48;57.06
58473;BME280;44775;51.564;5.460;2023-07-02T09:05:52;100831.50;;;20.28;56.53
58473;BME280;44775;51.564;5.460;2023-07-02T09:08:26;100829.81;;;20.27;56.80
58473;BME280;44775;51.564;5.460;2023-07-02T09:10:52;100838.06;;;20.63;56.01
58473;BME280;44775;51.564;5.460;2023-07-02T09:13:17;100839.22;;;20.67;56.37
58473;BME280;44775;51.564;5.460;2023-07-02T09:15:43;100843.72;;;20.73;57.15
58473;BME280;44775;51.564;5.460;2023-07-02T09:18:18;100839.34;;;20.84;56.19
58473;BME280;44775;51.564;5.460;2023-07-02T09:20:43;100836.59;;;20.95;55.55
58473;BME280;44775;51.564;5.460;2023-07-02T09:23:08;100846.28;;;21.15;53.65
58473;BME280;44775;51.564;5.460;2023-07-02T09:25:37;100842.28;;;20.94;53.71
58473;BME280;44775;51.564;5.460;2023-07-02T09:28:13;100835.56;;;20.61;53.29
58473;BME280;44775;51.564;5.460;2023-07-02T09:30:38;100841.75;;;20.26;55.34
58473;BME280;44775;51.564;5.460;2023-07-02T09:33:13;100841.81;;;20.62;54.16
58473;BME280;44775;51.564;5.460;2023-07-02T09:35:40;100838.22;;;21.32;54.29
58473;BME280;44775;51.564;5.460;2023-07-02T09:38:05;100841.91;;;22.23;52.29
58473;BME280;44775;51.564;5.460;2023-07-02T09:40:31;100831.13;;;22.45;46.77
58473;BME280;44775;51.564;5.460;2023-07-02T09:42:56;100840.13;;;22.46;48.71
58473;BME280;44775;51.564;5.460;2023-07-02T09:45:22;100835.25;;;22.48;49.08
58473;BME280;44775;51.564;5.460;2023-07-02T09:47:47;100834.06;;;22.27;46.31
58473;BME280;44775;51.564;5.460;2023-07-02T09:50:14;100826.84;;;21.87;48.10
58473;BME280;44775;51.564;5.460;2023-07-02T09:52:41;100828.47;;;21.59;46.57
58473;BME280;44775;51.564;5.460;2023-07-02T09:55:07;100833.41;;;21.10;51.97
58473;BME280;44775;51.564;5.460;2023-07-02T09:57:32;100833.53;;;21.04;50.80
58473;BME280;44775;51.564;5.460;2023-07-02T10:00:00;100832.75;;;20.80;51.52
58473;BME280;44775;51.564;5.460;2023-07-02T10:02:26;100837.59;;;20.89;52.57
58473;BME280;44775;51.564;5.460;2023-07-02T10:04:51;100853.13;;;21.41;49.30
58473;BME280;44775;51.564;5.460;2023-07-02T10:07:26;100848.44;;;21.13;50.09
58473;BME280;44775;51.564;5.460;2023-07-02T10:09:52;100858.94;;;20.97;48.86
58473;BME280;44775;51.564;5.460;2023-07-02T10:14:43;100858.00;;;20.57;49.17
58473;BME280;44775;51.564;5.460;2023-07-02T10:17:09;100859.63;;;20.58;50.44
58473;BME280;44775;51.564;5.460;2023-07-02T10:19:34;100860.84;;;20.32;50.46
58473;BME280;44775;51.564;5.460;2023-07-02T10:22:00;100864.09;;;20.10;50.99
58473;BME280;44775;51.564;5.460;2023-07-02T10:24:26;100860.50;;;19.86;52.71
58473;BME280;44775;51.564;5.460;2023-07-02T10:26:52;100857.03;;;19.79;53.92
58473;BME280;44775;51.564;5.460;2023-07-02T10:29:21;100865.09;;;19.67;54.28
58473;BME280;44775;51.564;5.460;2023-07-02T10:31:48;100863.75;;;19.40;57.62
58473;BME280;44775;51.564;5.460;2023-07-02T10:34:13;100859.44;;;19.50;55.50
58473;BME280;44775;51.564;5.460;2023-07-02T10:36:38;100862.94;;;19.57;55.85
58473;BME280;44775;51.564;5.460;2023-07-02T10:39:03;100851.22;;;19.57;55.23
58473;BME280;44775;51.564;5.460;2023-07-02T10:41:30;100869.72;;;19.48;59.57
58473;BME280;44775;51.564;5.460;2023-07-02T10:44:09;100868.91;;;19.96;55.22
58473;BME280;44775;51.564;5.460;2023-07-02T10:46:35;100861.88;;;20.61;57.25
58473;BME280;44775;51.564;5.460;2023-07-02T10:49:07;100868.00;;;21.38;55.17
58473;BME280;44775;51.564;5.460;2023-07-02T10:51:34;100867.56;;;21.99;51.04
58473;BME280;44775;51.564;5.460;2023-07-02T10:53:59;100870.97;;;22.18;50.66
58473;BME280;44775;51.564;5.460;2023-07-02T10:56:28;100881.75;;;22.29;49.81
58473;BME280;44775;51.564;5.460;2023-07-02T10:58:54;100869.69;;;21.97;50.71
58473;BME280;44775;51.564;5.460;2023-07-02T11:01:26;100879.50;;;21.81;48.88
58473;BME280;44775;51.564;5.460;2023-07-02T11:04:10;100875.56;;;21.48;51.16
58473;BME280;44775;51.564;5.460;2023-07-02T11:06:35;100879.56;;;21.45;51.52
58473;BME280;44775;51.564;5.460;2023-07-02T11:09:01;100879.09;;;21.49;51.22
58473;BME280;44775;51.564;5.460;2023-07-02T11:11:26;100884.09;;;21.40;50.70
58473;BME280;44775;51.564;5.460;2023-07-02T11:13:52;100882.19;;;21.40;50.77
58473;BME280;44775;51.564;5.460;2023-07-02T11:16:24;100887.44;;;21.71;52.09
58473;BME280;44775;51.564;5.460;2023-07-02T11:18:54;100881.09;;;22.22;51.22
58473;BME280;44775;51.564;5.460;2023-07-02T11:21:20;100895.72;;;22.33;48.60
58473;BME280;44775;51.564;5.460;2023-07-02T11:23:45;100886.13;;;21.73;49.50
58473;BME280;44775;51.564;5.460;2023-07-02T11:26:10;100883.16;;;22.15;49.45
58473;BME280;44775;51.564;5.460;2023-07-02T11:28:35;100888.88;;;22.47;47.01
58473;BME280;44775;51.564;5.460;2023-07-02T11:31:01;100896.63;;;22.89;45.89
58473;BME280;44775;51.564;5.460;2023-07-02T11:33:37;100896.13;;;23.48;45.56
58473;BME280;44775;51.564;5.460;2023-07-02T11:36:03;100884.66;;;24.17;46.16
58473;BME280;44775;51.564;5.460;2023-07-02T11:38:28;100889.94;;;24.88;42.66
58473;BME280;44775;51.564;5.460;2023-07-02T11:40:53;100885.66;;;24.65;43.21
58473;BME280;44775;51.564;5.460;2023-07-02T11:43:18;100878.13;;;24.18;44.69
58473;BME280;44775;51.564;5.460;2023-07-02T11:45:44;100869.66;;;23.92;43.64
58473;BME280;44775;51.564;5.460;2023-07-02T11:48:09;100887.59;;;23.83;43.58
58473;BME280;44775;51.564;5.460;2023-07-02T11:50:34;100880.84;;;24.45;44.02
58473;BME280;44775;51.564;5.460;2023-07-02T11:52:59;100888.22;;;25.19;41.14
58473;BME280;44775;51.564;5.460;2023-07-02T11:55:24;100880.34;;;24.85;40.81
58473;BME280;44775;51.564;5.460;2023-07-02T11:57:50;100884.88;;;24.69;42.46
58473;BME280;44775;51.564;5.460;2023-07-02T12:00:15;100887.00;;;24.03;42.87
58473;BME280;44775;51.564;5.460;2023-07-02T12:02:40;100888.94;;;23.42;43.04
58473;BME280;44775;51.564;5.460;2023-07-02T12:05:06;100879.13;;;23.41;45.45
58473;BME280;44775;51.564;5.460;2023-07-02T12:07:31;100875.25;;;23.37;45.01
58473;BME280;44775;51.564;5.460;2023-07-02T12:09:56;100878.03;;;23.86;44.13
58473;BME280;44775;51.564;5.460;2023-07-02T12:12:21;100875.41;;;24.50;43.58
58473;BME280;44775;51.564;5.460;2023-07-02T12:14:47;100889.16;;;25.35;42.18
58473;BME280;44775;51.564;5.460;2023-07-02T12:17:12;100872.97;;;26.11;40.77
58473;BME280;44775;51.564;5.460;2023-07-02T12:19:38;100881.50;;;26.66;39.45
58473;BME280;44775;51.564;5.460;2023-07-02T12:22:04;100886.41;;;27.00;36.57
58473;BME280;44775;51.564;5.460;2023-07-02T12:24:29;100878.78;;;26.87;35.65
58473;BME280;44775;51.564;5.460;2023-07-02T12:26:54;100885.03;;;27.02;37.32
58473;BME280;44775;51.564;5.460;2023-07-02T12:29:19;100883.16;;;27.73;34.85
58473;BME280;44775;51.564;5.460;2023-07-02T12:31:44;100875.53;;;27.60;34.34
58473;BME280;44775;51.564;5.460;2023-07-02T12:34:10;100882.88;;;26.89;33.34
58473;BME280;44775;51.564;5.460;2023-07-02T12:36:35;100880.13;;;26.12;35.50
58473;BME280;44775;51.564;5.460;2023-07-02T12:39:00;100876.53;;;25.97;34.21
58473;BME280;44775;51.564;5.460;2023-07-02T12:41:25;100887.09;;;25.73;34.56